Time;durP1;ratioP1;P1;durP2;ratioP2;P2;SDS_P1;SDS_P2;PMS_P1;PMS_P2;Temp;Humidity;BMP_temperature;BMP_pressure;BME280_temperature;BME280_humidity;BME280_pressure;Samples;Min_cycle;Max_cycle;Signal;HPM_P1;HPM_P2
2023/12/11 00:01:21;;;;;;;3.47;1.15;;;;;;;6.10;100.00;97062.66;15277702;19;20091;-57
2023/12/11 00:06:47;;;;;;;3.35;1.10;;;;;;;6.16;100.00;97053.97;15273840;19;20018;-55
2023/12/11 00:12:15;;;;;;;4.47;1.20;;;;;;;6.29;100.00;97066.00;15275004;19;20415;-56
2023/12/11 00:17:39;;;;;;;3.85;1.15;;;;;;;6.38;100.00;97075.69;15276855;19;20031;-57
2023/12/11 00:23:04;;;;;;;5.97;1.30;;;;;;;6.44;100.00;97071.50;15268059;19;20094;-55
2023/12/11 00:28:34;;;;;;;3.83;1.08;;;;;;;6.48;100.00;97065.66;15275557;19;20035;-56
2023/12/11 00:34:00;;;;;;;4.03;1.42;;;;;;;6.51;100.00;97060.97;15269722;19;20102;-56
2023/12/11 00:39:24;;;;;;;3.88;1.17;;;;;;;6.48;100.00;97060.31;15274698;19;20035;-55
2023/12/11 00:44:51;;;;;;;1.80;0.93;;;;;;;6.47;100.00;97055.97;15272906;19;20010;-52
2023/12/11 00:50:17;;;;;;;3.53;1.15;;;;;;;6.53;100.00;97053.59;15272923;19;20039;-55
2023/12/11 00:55:42;;;;;;;3.60;1.10;;;;;;;6.61;100.00;97065.13;15263224;19;20021;-57
2023/12/11 01:01:10;;;;;;;5.13;1.40;;;;;;;6.67;100.00;97062.78;15016508;19;5000701;-56
2023/12/11 01:06:36;;;;;;;3.08;1.05;;;;;;;6.69;100.00;97083.00;15266627;19;20037;-54
2023/12/11 01:12:01;;;;;;;3.35;1.20;;;;;;;6.67;100.00;97074.31;15268881;19;20444;-57
2023/12/11 01:17:28;;;;;;;2.55;1.10;;;;;;;6.62;100.00;97076.69;15271539;19;20466;-56
2023/12/11 01:22:57;;;;;;;2.35;0.95;;;;;;;6.60;100.00;97076.81;15269267;19;20018;-56
2023/12/11 01:28:22;;;;;;;5.10;1.20;;;;;;;6.66;100.00;97080.66;15266010;19;20018;-57
2023/12/11 01:33:56;;;;;;;2.83;1.00;;;;;;;6.75;100.00;97093.06;15259608;19;20528;-60
2023/12/11 01:39:23;;;;;;;3.17;1.02;;;;;;;6.81;100.00;97085.34;15268861;19;20491;-60
2023/12/11 01:44:47;;;;;;;2.65;1.02;;;;;;;6.77;100.00;97079.50;15270497;19;20015;-58
2023/12/11 01:50:15;;;;;;;3.20;1.27;;;;;;;6.68;100.00;97067.97;15271534;19;20799;-57
2023/12/11 01:55:42;;;;;;;3.67;1.20;;;;;;;6.66;100.00;97078.00;15269303;19;20736;-58
2023/12/11 02:01:09;;;;;;;2.72;1.00;;;;;;;6.63;100.00;97070.31;15265295;19;20082;-59
2023/12/11 02:06:36;;;;;;;4.75;1.17;;;;;;;6.58;100.00;97075.34;15269974;19;20022;-60
2023/12/11 02:12:01;;;;;;;4.68;1.20;;;;;;;6.55;100.00;97078.34;15288545;19;20110;-60
2023/12/11 02:17:26;;;;;;;3.33;1.45;;;;;;;6.52;100.00;97070.69;15286822;19;20030;-57
2023/12/11 02:22:55;;;;;;;3.58;1.08;;;;;;;6.45;100.00;97060.63;15287049;19;20021;-60
2023/12/11 02:28:22;;;;;;;3.55;1.10;;;;;;;6.44;100.00;97069.66;15285994;19;20488;-61
2023/12/11 02:33:47;;;;;;;5.00;1.30;;;;;;;6.43;100.00;97062.63;15277630;19;20084;-57
2023/12/11 02:39:12;;;;;;;3.38;1.10;;;;;;;6.44;100.00;97076.88;15288883;19;20025;-56
2023/12/11 02:44:39;;;;;;;3.05;0.90;;;;;;;6.39;100.00;97080.03;15282611;19;20566;-57
2023/12/11 02:50:05;;;;;;;4.10;1.00;;;;;;;6.34;100.00;97085.06;15285304;19;20363;-60
2023/12/11 02:55:30;;;;;;;3.85;1.42;;;;;;;6.29;100.00;97079.38;15278569;19;20492;-59
2023/12/11 03:00:58;;;;;;;4.18;1.20;;;;;;;6.29;100.00;97068.69;15281309;19;20014;-57
2023/12/11 03:06:23;;;;;;;3.63;1.02;;;;;;;6.31;100.00;97061.31;15270443;19;20415;-60
2023/12/11 03:11:48;;;;;;;3.45;1.40;;;;;;;6.35;100.00;97057.31;15279944;19;20018;-56
2023/12/11 03:17:17;;;;;;;4.70;1.20;;;;;;;6.42;100.00;97066.31;15274014;19;20011;-60
2023/12/11 03:22:41;;;;;;;4.25;1.20;;;;;;;6.47;100.00;97063.97;15278672;19;20010;-58
2023/12/11 03:28:06;;;;;;;3.40;1.10;;;;;;;6.53;100.00;97066.97;15277914;19;20077;-62
2023/12/11 03:33:34;;;;;;;4.63;1.35;;;;;;;6.55;100.00;97059.63;15277086;19;20018;-57
2023/12/11 03:38:59;;;;;;;3.72;1.15;;;;;;;6.52;100.00;97054.63;15273712;19;20636;-59
2023/12/11 03:44:24;;;;;;;3.97;0.90;;;;;;;6.46;100.00;97056.97;15276753;19;20359;-58
2023/12/11 03:49:51;;;;;;;4.45;1.10;;;;;;;6.44;100.00;97056.28;15276159;19;20018;-60
2023/12/11 03:55:17;;;;;;;2.85;1.02;;;;;;;6.41;100.00;97059.28;15273231;19;20039;-60
2023/12/11 04:00:42;;;;;;;4.93;1.25;;;;;;;6.35;100.00;97065.31;15275639;19;20075;-56
2023/12/11 04:06:09;;;;;;;3.22;1.08;;;;;;;6.29;100.00;97049.97;15273592;19;20351;-63
2023/12/11 04:11:36;;;;;;;3.50;1.20;;;;;;;6.25;100.00;97049.44;15270279;19;20018;-59
2023/12/11 04:17:00;;;;;;;5.60;1.00;;;;;;;6.26;100.00;97047.63;15270686;19;20021;-58
2023/12/11 04:22:27;;;;;;;3.90;1.20;;;;;;;6.23;100.00;97040.78;15275584;19;20499;-56
2023/12/11 04:27:52;;;;;;;5.85;1.20;;;;;;;6.26;100.00;97058.31;15279325;19;20431;-55
2023/12/11 04:33:18;;;;;;;3.65;1.20;;;;;;;6.28;100.00;97059.81;15273735;19;20022;-61
2023/12/11 04:38:45;;;;;;;4.13;1.10;;;;;;;6.30;100.00;97054.28;15277230;19;20367;-58
2023/12/11 04:44:10;;;;;;;4.43;1.02;;;;;;;6.31;100.00;97042.59;15268849;19;20430;-58
2023/12/11 04:49:34;;;;;;;3.63;0.98;;;;;;;6.35;100.00;97046.59;15275136;19;20517;-58
2023/12/11 04:55:01;;;;;;;2.80;0.90;;;;;;;6.41;100.00;97032.53;15275249;19;20565;-61
2023/12/11 05:00:27;;;;;;;2.92;0.98;;;;;;;6.40;100.00;97027.38;15276708;19;20018;-59
2023/12/11 05:05:52;;;;;;;2.78;0.95;;;;;;;6.45;100.00;97030.38;15273858;19;20073;-58
2023/12/11 05:11:19;;;;;;;4.20;1.05;;;;;;;6.46;100.00;97027.53;15276707;19;20007;-58
2023/12/11 05:16:45;;;;;;;4.78;1.00;;;;;;;6.32;100.00;97022.88;15268039;19;20027;-59
2023/12/11 05:22:09;;;;;;;3.67;0.90;;;;;;;6.37;100.00;97033.91;15276027;19;20010;-61
2023/12/11 05:27:36;;;;;;;4.05;1.05;;;;;;;6.44;100.00;97040.22;15273301;19;20459;-59
2023/12/11 05:33:02;;;;;;;5.10;1.10;;;;;;;6.52;100.00;97034.03;15270114;19;20014;-62
2023/12/11 05:38:28;;;;;;;5.85;1.10;;;;;;;6.58;100.00;97022.69;15271644;19;20478;-61
2023/12/11 05:43:57;;;;;;;7.47;0.95;;;;;;;6.57;100.00;97031.69;15272264;19;20015;-61
2023/12/11 05:49:25;;;;;;;2.65;0.98;;;;;;;6.55;100.00;97024.81;15264433;19;20070;-59
2023/12/11 05:54:49;;;;;;;2.00;0.82;;;;;;;6.59;100.00;97032.34;15271965;19;20016;-60
2023/12/11 06:00:18;;;;;;;5.00;1.13;;;;;;;6.61;100.00;97024.16;15273402;19;20021;-61
2023/12/11 06:05:43;;;;;;;2.95;1.17;;;;;;;6.66;100.00;97018.28;15270338;19;20420;-61
2023/12/11 06:11:09;;;;;;;7.13;1.30;;;;;;;6.64;100.00;97002.44;15273984;19;20007;-60
2023/12/11 06:16:30;;;;;;;3.60;1.20;;;;;;;6.57;100.00;97017.47;15265578;19;20705;-62
2023/12/11 06:21:54;;;;;;;3.33;1.05;;;;;;;6.47;100.00;97018.50;15266969;19;20527;-61
2023/12/11 06:27:19;;;;;;;4.32;1.40;;;;;;;6.45;100.00;97028.53;14758055;19;10000389;-60
2023/12/11 06:32:46;;;;;;;4.57;1.10;;;;;;;6.47;100.00;97026.53;15272276;19;20020;-57
2023/12/11 06:38:18;;;;;;;4.63;1.02;;;;;;;6.52;100.00;97027.88;15266654;19;20019;-63
2023/12/11 06:43:43;;;;;;;4.23;1.10;;;;;;;6.62;100.00;97031.19;15268794;19;20467;-58
2023/12/11 06:49:10;;;;;;;5.18;1.23;;;;;;;6.69;100.00;97024.13;15270387;19;20259;-55
2023/12/11 06:54:35;;;;;;;5.70;1.20;;;;;;;6.65;100.00;97009.41;15270364;19;20027;-62
2023/12/11 07:00:02;;;;;;;5.05;1.30;;;;;;;6.64;100.00;97023.84;15285185;19;20027;-56
2023/12/11 07:05:29;;;;;;;4.57;1.33;;;;;;;6.66;100.00;97012.94;15280710;19;20018;-57
2023/12/11 07:10:54;;;;;;;4.47;1.20;;;;;;;6.68;100.00;97022.47;15283598;19;20121;-57
2023/12/11 07:16:19;;;;;;;5.68;1.38;;;;;;;6.72;100.00;97017.59;15281133;19;20026;-54
2023/12/11 07:21:46;;;;;;;4.70;1.45;;;;;;;6.74;100.00;96995.03;15283858;19;20322;-58
2023/12/11 07:27:11;;;;;;;5.38;1.15;;;;;;;6.81;100.00;97000.53;15273231;19;20017;-56
2023/12/11 07:32:37;;;;;;;5.38;1.23;;;;;;;6.91;100.00;96981.56;15282758;19;20037;-63
2023/12/11 07:38:11;;;;;;;3.88;1.20;;;;;;;6.98;100.00;96979.88;15259352;19;20403;-54
2023/12/11 07:43:36;;;;;;;4.75;1.38;;;;;;;7.02;100.00;96966.97;15280996;19;20491;-57
2023/12/11 07:49:01;;;;;;;5.20;1.40;;;;;;;7.01;100.00;96960.78;15280065;19;20018;-57
2023/12/11 07:54:28;;;;;;;4.22;1.27;;;;;;;7.06;100.00;96963.78;15279167;19;20089;-54
2023/12/11 07:59:54;;;;;;;3.55;1.27;;;;;;;7.18;100.00;96971.41;15278457;19;20546;-56
2023/12/11 08:05:20;;;;;;;3.20;1.10;;;;;;;7.31;100.00;96969.00;15274843;19;20109;-54
2023/12/11 08:10:48;;;;;;;3.13;1.00;;;;;;;7.43;100.00;96965.91;15280289;19;20034;-56
2023/12/11 08:16:13;;;;;;;5.35;1.20;;;;;;;7.49;100.00;96949.13;15275524;19;20011;-57
2023/12/11 08:21:38;;;;;;;4.70;1.40;;;;;;;7.55;100.00;96926.97;15277821;19;20078;-60
2023/12/11 08:27:07;;;;;;;5.53;1.15;;;;;;;7.60;100.00;96929.94;15275509;19;20018;-59
2023/12/11 08:32:31;;;;;;;5.85;1.20;;;;;;;7.63;100.00;96921.53;15278295;19;20426;-58
2023/12/11 08:38:02;;;;;;;4.47;1.27;;;;;;;7.70;100.00;96927.03;15273568;19;20029;-57
2023/12/11 08:43:30;;;;;;;3.33;1.17;;;;;;;7.87;100.00;96925.03;15276334;19;20018;-57
2023/12/11 08:48:54;;;;;;;5.40;1.27;;;;;;;8.04;100.00;96936.44;15248870;19;20014;-56
2023/12/11 08:54:19;;;;;;;3.75;1.00;;;;;;;8.22;100.00;96925.38;15276404;19;20015;-58
2023/12/11 08:59:47;;;;;;;4.22;1.05;;;;;;;8.38;100.00;96926.22;15271103;19;22106;-53
2023/12/11 09:05:12;;;;;;;4.70;1.20;;;;;;;8.51;100.00;96915.72;15273835;19;20017;-53
2023/12/11 09:10:38;;;;;;;5.32;1.23;;;;;;;8.64;100.00;96913.19;15275578;19;20370;-58
2023/12/11 09:16:06;;;;;;;3.80;1.20;;;;;;;8.75;100.00;96903.03;15271352;19;20113;-56
2023/12/11 09:21:31;;;;;;;3.88;1.20;;;;;;;8.88;100.00;96916.59;15274158;19;20568;-56
2023/12/11 09:26:56;;;;;;;4.22;1.13;;;;;;;8.94;100.00;96907.78;15270627;19;20029;-59
2023/12/11 09:32:23;;;;;;;4.82;1.20;;;;;;;8.99;100.00;96888.44;15270290;19;20010;-56
2023/12/11 09:37:49;;;;;;;3.35;1.10;;;;;;;9.03;100.00;96894.25;15270579;19;20018;-58
2023/12/11 09:43:13;;;;;;;4.15;1.10;;;;;;;9.05;100.00;96885.00;15272790;19;20070;-55
2023/12/11 09:48:42;;;;;;;4.50;1.20;;;;;;;9.09;100.00;96885.44;15272886;19;20630;-58
2023/12/11 09:54:08;;;;;;;3.28;1.10;;;;;;;9.11;100.00;96888.78;15249330;19;20031;-56
2023/12/11 09:59:35;;;;;;;2.95;1.00;;;;;;;9.17;100.00;96896.06;15267856;19;20022;-56
2023/12/11 10:05:16;;;;;;;3.08;0.90;;;;;;;9.25;100.00;96884.38;15265669;19;20032;-54
2023/12/11 10:10:42;;;;;;;2.37;0.93;;;;;;;9.36;100.00;96880.31;15271971;19;20022;-56
2023/12/11 10:16:06;;;;;;;2.60;0.95;;;;;;;9.49;100.00;96879.63;15269057;19;20024;-55
2023/12/11 10:21:41;;;;;;;5.72;1.30;;;;;;;9.50;100.00;96852.56;15271196;19;20400;-55
2023/12/11 10:27:06;;;;;;;3.25;0.80;;;;;;;9.39;100.00;96858.44;15268971;19;20018;-53
2023/12/11 10:32:31;;;;;;;3.53;0.88;;;;;;;8.80;100.00;96828.09;15285363;19;20394;-58
2023/12/11 10:37:59;;;;;;;4.50;1.00;;;;;;;8.36;100.00;96837.03;15275934;19;20078;-55
2023/12/11 10:43:24;;;;;;;4.18;0.90;;;;;;;8.23;100.00;96857.28;15279018;19;20010;-58
2023/12/11 10:49:00;;;;;;;3.63;1.02;;;;;;;8.17;100.00;96861.56;15284260;19;20010;-53
2023/12/11 10:54:28;;;;;;;3.33;0.90;;;;;;;8.25;100.00;96889.28;15026109;19;5001063;-54
2023/12/11 10:59:53;;;;;;;2.58;0.90;;;;;;;8.30;100.00;96887.72;15280266;19;20629;-59
2023/12/11 11:05:19;;;;;;;6.05;1.13;;;;;;;8.40;100.00;96887.44;15281608;19;20381;-55
2023/12/11 11:10:52;;;;;;;4.40;1.20;;;;;;;8.54;100.00;96909.97;15278565;19;20035;-55
2023/12/11 11:16:18;;;;;;;4.45;0.98;;;;;;;8.61;100.00;96888.56;15279427;19;20016;-57
2023/12/11 11:21:42;;;;;;;2.90;0.80;;;;;;;8.63;100.00;96895.44;15283491;19;20013;-57
2023/12/11 11:27:43;;;;;;;2.47;0.70;;;;;;;8.70;100.00;96881.25;15277967;19;20074;-57
2023/12/11 11:33:08;;;;;;;2.00;0.80;;;;;;;8.75;100.00;96879.69;15281421;19;20018;-58
2023/12/11 11:39:01;;;;;;;2.67;0.70;;;;;;;8.84;100.00;96866.97;15276883;19;20078;-58
2023/12/11 11:44:29;;;;;;;3.50;0.77;;;;;;;8.91;100.00;96854.44;15274437;19;20745;-58
2023/12/11 11:49:53;;;;;;;1.42;0.65;;;;;;;9.00;100.00;96840.91;15281772;19;20014;-59
2023/12/11 11:55:23;;;;;;;2.28;0.82;;;;;;;9.05;100.00;96819.69;15279245;19;20024;-56
2023/12/11 12:00:51;;;;;;;3.40;1.00;;;;;;;9.13;100.00;96824.09;15282939;19;20025;-58
2023/12/11 12:06:20;;;;;;;2.13;0.80;;;;;;;9.14;100.00;96807.78;15278955;19;20279;-58
2023/12/11 12:11:45;;;;;;;3.40;0.68;;;;;;;9.24;100.00;96808.28;15280996;19;20010;-58
2023/12/11 12:17:14;;;;;;;2.03;0.70;;;;;;;9.36;100.00;96794.31;15272847;19;20021;-53
2023/12/11 12:22:38;;;;;;;3.08;0.85;;;;;;;9.39;100.00;96788.56;15279565;19;20018;-55
2023/12/11 12:28:06;;;;;;;4.03;1.00;;;;;;;9.44;100.00;96771.84;15275833;19;20254;-53
2023/12/11 12:33:34;;;;;;;2.80;0.70;;;;;;;9.47;100.00;96768.78;15279999;19;20022;-57
2023/12/11 12:39:08;;;;;;;2.53;0.80;;;;;;;9.53;100.00;96774.22;15271703;19;20359;-54
2023/12/11 12:44:40;;;;;;;2.63;0.88;;;;;;;9.56;100.00;96763.09;15276750;19;20585;-57
2023/12/11 12:50:08;;;;;;;3.05;0.93;;;;;;;9.60;100.00;96771.59;15273276;19;20554;-56
2023/12/11 12:55:36;;;;;;;2.05;0.68;;;;;;;9.60;100.00;96762.66;15273349;19;20069;-56
2023/12/11 13:01:03;;;;;;;3.63;0.80;;;;;;;9.60;100.00;96774.28;15277793;19;20090;-56
2023/12/11 13:06:31;;;;;;;2.95;0.70;;;;;;;9.64;100.00;96751.31;15265370;19;20470;-57
2023/12/11 13:11:56;;;;;;;2.60;0.77;;;;;;;9.64;100.00;96755.88;15276487;19;20025;-56
2023/12/11 13:17:21;;;;;;;1.80;0.80;;;;;;;9.65;100.00;96744.91;15272806;19;20021;-56
2023/12/11 13:22:49;;;;;;;1.30;0.60;;;;;;;9.63;100.00;96749.69;15275154;19;20422;-55
2023/12/11 13:28:14;;;;;;;2.22;0.70;;;;;;;9.60;100.00;96747.38;15271968;19;20025;-57
2023/12/11 13:33:38;;;;;;;1.65;0.50;;;;;;;9.59;100.00;96750.25;15273751;19;20018;-56
2023/12/11 13:39:12;;;;;;;1.58;0.60;;;;;;;9.55;100.00;96750.66;15269310;19;20455;-57
2023/12/11 13:44:37;;;;;;;2.72;0.70;;;;;;;9.55;100.00;96772.16;15268762;19;20018;-59
2023/12/11 13:50:01;;;;;;;4.30;0.90;;;;;;;9.54;100.00;96748.16;15270373;19;20078;-57
2023/12/11 13:55:29;;;;;;;1.23;0.52;;;;;;;9.56;100.00;96752.34;15270551;19;20018;-55
2023/12/11 14:00:53;;;;;;;2.75;0.80;;;;;;;9.59;100.00;96774.44;15269278;19;20011;-55
2023/12/11 14:06:19;;;;;;;1.85;0.60;;;;;;;9.54;100.00;96759.75;15282254;19;20039;-55
2023/12/11 14:11:46;;;;;;;2.08;0.50;;;;;;;9.52;100.00;96777.94;15287182;19;20017;-53
2023/12/11 14:17:12;;;;;;;2.15;0.70;;;;;;;9.53;100.00;96781.44;15278151;19;20018;-57
2023/12/11 14:22:36;;;;;;;3.22;0.70;;;;;;;9.54;100.00;96826.13;15281551;19;20069;-57
2023/12/11 14:28:06;;;;;;;3.05;0.70;;;;;;;9.48;100.00;96808.09;15277764;19;20027;-58
2023/12/11 14:33:30;;;;;;;4.05;0.60;;;;;;;9.45;100.00;96811.16;15286056;19;20022;-58
2023/12/11 14:39:02;;;;;;;1.48;0.55;;;;;;;9.47;100.00;96809.94;15278164;19;20024;-54
2023/12/11 14:44:30;;;;;;;1.95;0.60;;;;;;;9.51;100.00;96823.84;15281084;19;20018;-55
2023/12/11 14:49:54;;;;;;;2.15;0.60;;;;;;;9.57;100.00;96817.66;15280463;19;20029;-54
2023/12/11 14:55:20;;;;;;;2.45;0.70;;;;;;;9.50;100.00;96819.47;15276201;19;20021;-56
2023/12/11 15:00:50;;;;;;;2.75;0.73;;;;;;;9.29;100.00;96852.56;15278819;19;20013;-55
2023/12/11 15:06:15;;;;;;;1.92;0.60;;;;;;;9.07;100.00;96882.94;15276746;19;20006;-54
2023/12/11 15:11:40;;;;;;;2.75;0.80;;;;;;;8.84;100.00;96883.09;15276129;19;20074;-58
2023/12/11 15:17:09;;;;;;;2.17;0.55;;;;;;;8.69;100.00;96898.38;15275887;19;20089;-54
2023/12/11 15:22:33;;;;;;;1.65;0.57;;;;;;;8.69;100.00;96903.75;15281910;19;20007;-52
2023/12/11 15:27:58;;;;;;;1.63;0.47;;;;;;;8.76;100.00;96907.38;15271748;19;20023;-55
2023/12/11 15:33:25;;;;;;;1.23;0.47;;;;;;;8.82;100.00;96897.75;15282297;19;20006;-58
2023/12/11 15:38:57;;;;;;;1.70;0.60;;;;;;;8.82;100.00;96933.47;15271879;19;20093;-58
2023/12/11 15:44:28;;;;;;;0.50;0.37;;;;;;;8.88;100.00;96915.78;15277293;19;20015;-53
2023/12/11 15:49:56;;;;;;;1.53;0.63;;;;;;;8.92;100.00;96928.63;15278467;19;20854;-58
2023/12/11 15:55:20;;;;;;;0.85;0.47;;;;;;;8.89;100.00;96955.84;15276105;19;20264;-54
2023/12/11 16:00:45;;;;;;;1.90;0.57;;;;;;;8.85;100.00;96937.63;15269828;19;20002;-55
2023/12/11 16:06:13;;;;;;;2.25;0.90;;;;;;;8.86;100.00;96956.25;15290897;19;20018;-57
2023/12/11 16:11:44;;;;;;;1.15;0.60;;;;;;;8.83;100.00;96955.75;15294813;19;20369;-54
2023/12/11 16:17:09;;;;;;;2.27;0.80;;;;;;;8.77;100.00;96968.94;15291315;19;20345;-52
2023/12/11 16:22:37;;;;;;;1.48;0.80;;;;;;;8.77;100.00;96979.66;15290201;19;20465;-56
2023/12/11 16:28:02;;;;;;;2.92;0.70;;;;;;;8.75;100.00;96997.00;15286611;19;20261;-55
2023/12/11 16:33:30;;;;;;;2.33;0.70;;;;;;;8.74;100.00;97000.69;15286817;19;20018;-52
2023/12/11 16:38:58;;;;;;;1.10;0.52;;;;;;;8.75;100.00;97010.41;15286870;19;20017;-55
2023/12/11 16:44:23;;;;;;;1.48;0.60;;;;;;;8.74;100.00;97032.91;15288872;19;20069;-53
2023/12/11 16:49:48;;;;;;;1.02;0.60;;;;;;;8.75;100.00;97019.28;15290269;19;20046;-58
2023/12/11 16:55:27;;;;;;;2.05;0.70;;;;;;;8.68;100.00;97055.97;15288998;19;20381;-57
2023/12/11 17:00:52;;;;;;;1.88;0.80;;;;;;;8.68;100.00;97047.06;15286157;19;20081;-57
2023/12/11 17:06:23;;;;;;;1.85;0.63;;;;;;;8.60;100.00;97048.81;15281763;19;20490;-56
2023/12/11 17:11:53;;;;;;;1.48;0.60;;;;;;;8.43;100.00;97033.84;15289592;19;20006;-57
2023/12/11 17:17:17;;;;;;;1.00;0.50;;;;;;;8.36;100.00;97051.69;15285994;19;20020;-58
2023/12/11 17:22:42;;;;;;;1.33;0.55;;;;;;;8.31;100.00;97079.88;15288657;19;20010;-58
2023/12/11 17:28:09;;;;;;;1.42;0.68;;;;;;;8.26;100.00;97071.56;15285147;19;20016;-57
2023/12/11 17:33:34;;;;;;;0.70;0.50;;;;;;;8.20;100.00;97090.22;15287739;19;20018;-58
2023/12/11 17:39:05;;;;;;;0.93;0.50;;;;;;;8.13;100.00;97106.19;15280149;19;20463;-59
2023/12/11 17:44:33;;;;;;;0.73;0.50;;;;;;;8.10;100.00;97111.91;15285906;19;20022;-56
2023/12/11 17:49:57;;;;;;;1.80;0.80;;;;;;;8.04;100.00;97101.91;15287053;19;20021;-55
2023/12/11 17:55:22;;;;;;;1.65;0.70;;;;;;;8.06;100.00;97118.63;15284522;19;20035;-57
2023/12/11 18:00:49;;;;;;;1.98;0.77;;;;;;;8.10;100.00;97128.00;15284781;19;20018;-59
2023/12/11 18:06:17;;;;;;;1.75;0.80;;;;;;;8.10;100.00;97138.72;15284606;19;20017;-58
2023/12/11 18:11:41;;;;;;;3.00;0.93;;;;;;;8.15;100.00;97157.81;15280985;19;20463;-58
2023/12/11 18:17:09;;;;;;;1.08;0.60;;;;;;;8.16;100.00;97170.22;15283034;19;20478;-58
2023/12/11 18:22:33;;;;;;;2.97;0.50;;;;;;;8.14;100.00;97156.97;15281155;19;20034;-58
2023/12/11 18:27:58;;;;;;;2.35;0.77;;;;;;;8.14;100.00;97164.19;15283986;19;20046;-60
2023/12/11 18:33:25;;;;;;;1.73;0.80;;;;;;;8.17;100.00;97171.91;15286602;19;20029;-58
2023/12/11 18:38:56;;;;;;;1.45;0.60;;;;;;;8.15;100.00;97147.09;15278289;19;20058;-60
2023/12/11 18:44:21;;;;;;;1.00;0.60;;;;;;;8.12;100.00;97168.91;15278148;19;20010;-59
2023/12/11 18:49:51;;;;;;;2.30;0.70;;;;;;;8.15;100.00;97157.81;15291539;19;20323;-55
2023/12/11 18:55:17;;;;;;;1.92;0.80;;;;;;;8.17;100.00;97167.34;15297667;19;20030;-55
2023/12/11 19:00:42;;;;;;;1.90;0.65;;;;;;;8.21;100.00;97175.88;15296772;19;20015;-58
2023/12/11 19:06:11;;;;;;;1.20;0.50;;;;;;;8.21;100.00;97183.94;15302146;19;20018;-59
2023/12/11 19:11:35;;;;;;;1.88;0.60;;;;;;;8.20;100.00;97211.78;15301118;19;20078;-60
2023/12/11 19:17:00;;;;;;;4.00;0.70;;;;;;;7.98;100.00;97249.09;15289733;19;20024;-57
2023/12/11 19:22:27;;;;;;;1.33;0.63;;;;;;;8.00;100.00;97233.66;15292902;19;20013;-62
2023/12/11 19:27:52;;;;;;;1.65;0.60;;;;;;;8.00;100.00;97230.13;15004298;19;2006863;-56
2023/12/11 19:33:16;;;;;;;1.00;0.52;;;;;;;7.92;100.00;97252.47;15296995;19;20041;-59
2023/12/11 19:38:53;;;;;;;1.60;0.60;;;;;;;7.82;100.00;97266.09;15294021;19;20790;-59
2023/12/11 19:44:19;;;;;;;0.65;0.50;;;;;;;7.62;100.00;97289.75;15272992;19;20577;-57
2023/12/11 19:49:44;;;;;;;1.70;0.70;;;;;;;7.57;100.00;97300.16;15292488;19;20467;-56
2023/12/11 19:55:12;;;;;;;1.30;0.73;;;;;;;7.64;100.00;97327.13;15294407;19;20090;-53
2023/12/11 20:00:38;;;;;;;1.10;0.60;;;;;;;7.75;100.00;97331.28;15295824;19;20016;-51
2023/12/11 20:06:03;;;;;;;2.67;0.70;;;;;;;7.80;100.00;97358.44;15292862;19;20792;-50
2023/12/11 20:11:30;;;;;;;2.08;0.70;;;;;;;7.82;100.00;97345.69;15295317;19;20378;-55
2023/12/11 20:16:55;;;;;;;1.98;0.70;;;;;;;7.81;100.00;97363.59;15292954;19;20015;-51
2023/12/11 20:22:21;;;;;;;1.48;0.70;;;;;;;7.82;100.00;97372.50;15288942;19;20018;-54
2023/12/11 20:27:49;;;;;;;1.98;0.80;;;;;;;7.78;100.00;97377.34;15289948;19;20019;-63
2023/12/11 20:33:15;;;;;;;1.52;0.70;;;;;;;7.71;100.00;97395.13;15292378;19;20018;-59
2023/12/11 20:38:40;;;;;;;2.10;0.60;;;;;;;7.69;100.00;97394.44;15291343;19;20047;-60
2023/12/11 20:44:07;;;;;;;1.75;0.70;;;;;;;7.67;100.00;97402.69;15293843;19;20070;-61
2023/12/11 20:49:32;;;;;;;0.93;0.60;;;;;;;7.64;100.00;97408.38;15292636;19;20025;-60
2023/12/11 20:54:57;;;;;;;3.58;0.70;;;;;;;7.63;100.00;97428.13;15289736;19;20015;-60
2023/12/11 21:00:25;;;;;;;1.23;0.60;;;;;;;7.65;100.00;97447.56;15291353;19;20085;-59
2023/12/11 21:05:49;;;;;;;1.75;0.60;;;;;;;7.68;100.00;97455.28;15290228;19;20018;-59
2023/12/11 21:11:14;;;;;;;1.05;0.50;;;;;;;7.71;100.00;97462.97;15291135;19;20082;-61
2023/12/11 21:16:41;;;;;;;0.90;0.52;;;;;;;7.69;100.00;97470.38;15289223;19;20031;-61
2023/12/11 21:22:07;;;;;;;1.45;0.52;;;;;;;7.65;100.00;97479.75;15286126;19;20371;-62
2023/12/11 21:27:31;;;;;;;1.52;0.60;;;;;;;7.62;100.00;97474.69;15290290;19;20018;-60
2023/12/11 21:33:00;;;;;;;0.85;0.43;;;;;;;7.62;100.00;97466.66;15293228;19;20006;-60
2023/12/11 21:38:25;;;;;;;1.85;0.60;;;;;;;7.60;100.00;97471.34;15288162;19;20017;-60
2023/12/11 21:43:53;;;;;;;0.80;0.60;;;;;;;7.56;100.00;97475.38;15287620;19;20016;-60
2023/12/11 21:49:20;;;;;;;1.15;0.60;;;;;;;7.51;100.00;97477.69;15289802;19;20037;-60
2023/12/11 21:54:45;;;;;;;0.85;0.52;;;;;;;7.47;100.00;97487.06;15283476;19;20015;-60
2023/12/11 22:00:09;;;;;;;1.88;0.82;;;;;;;7.46;100.00;97499.63;15289191;19;20051;-59
2023/12/11 22:05:37;;;;;;;0.60;0.50;;;;;;;7.38;100.00;97499.63;15286385;19;20052;-61
2023/12/11 22:11:01;;;;;;;1.50;0.70;;;;;;;7.27;100.00;97507.97;15286744;19;20019;-59
2023/12/11 22:16:26;;;;;;;0.50;0.40;;;;;;;7.16;100.00;97517.13;15285777;19;20010;-60
2023/12/11 22:21:57;;;;;;;1.27;0.50;;;;;;;7.07;100.00;97526.97;15285779;19;20022;-60
2023/12/11 22:27:21;;;;;;;1.00;0.50;;;;;;;6.96;100.00;97528.09;15292023;19;20014;-59
2023/12/11 22:32:45;;;;;;;1.05;0.80;;;;;;;6.89;100.00;97532.41;15303828;19;20010;-59
2023/12/11 22:38:19;;;;;;;2.03;0.60;;;;;;;6.79;100.00;97527.19;15298442;19;20022;-59
2023/12/11 22:43:44;;;;;;;1.15;0.68;;;;;;;6.73;100.00;97555.44;15297354;19;20006;-59
2023/12/11 22:49:08;;;;;;;1.05;0.60;;;;;;;6.72;100.00;97547.53;15302003;19;20042;-60
2023/12/11 22:54:36;;;;;;;0.77;0.60;;;;;;;6.72;100.00;97564.47;15299976;19;20053;-60
2023/12/11 23:00:01;;;;;;;2.05;0.73;;;;;;;6.72;100.00;97569.81;15295921;19;20025;-61
2023/12/11 23:05:26;;;;;;;1.25;0.70;;;;;;;6.74;100.00;97583.88;15298831;19;20049;-60
2023/12/11 23:10:54;;;;;;;1.35;0.68;;;;;;;6.75;100.00;97582.91;15302387;19;20011;-58
2023/12/11 23:16:18;;;;;;;0.75;0.68;;;;;;;6.78;100.00;97595.94;15296883;19;20014;-58
2023/12/11 23:21:43;;;;;;;1.05;0.90;;;;;;;6.79;100.00;97592.25;15297257;19;20085;-59
2023/12/11 23:27:10;;;;;;;1.35;0.80;;;;;;;6.73;100.00;97594.72;15294557;19;20031;-57
2023/12/11 23:32:35;;;;;;;1.02;0.70;;;;;;;6.63;100.00;97592.19;15293791;19;20018;-59
2023/12/11 23:38:06;;;;;;;1.25;0.75;;;;;;;6.56;100.00;97591.09;15293504;19;20487;-59
2023/12/11 23:43:33;;;;;;;1.40;0.90;;;;;;;6.46;100.00;97589.38;15294643;19;20081;-60
2023/12/11 23:48:58;;;;;;;1.27;0.80;;;;;;;6.43;100.00;97600.38;15297752;19;20288;-60
2023/12/11 23:54:22;;;;;;;1.73;0.80;;;;;;;6.44;100.00;97604.72;15297008;19;20018;-60
2023/12/11 23:59:50;;;;;;;0.82;0.70;;;;;;;6.44;100.00;97606.59;15295446;19;20371;-60
